Time;durP1;ratioP1;P1;durP2;ratioP2;P2;SDS_P1;SDS_P2;PMS_P1;PMS_P2;Temp;Humidity;BMP_temperature;BMP_pressure;BME280_temperature;BME280_humidity;BME280_pressure;Samples;Min_cycle;Max_cycle;Signal;HPM_P1;HPM_P2
2023/09/04 00:00:45;;;;;;;6.40;5.33;;;15.20;99.90;;;;;;5046227;28;20502;-71
2023/09/04 00:03:10;;;;;;;5.83;5.23;;;15.20;99.90;;;;;;5047802;28;20812;-70
2023/09/04 00:05:36;;;;;;;7.10;6.37;;;15.20;99.90;;;;;;5048181;28;20194;-71
2023/09/04 00:08:02;;;;;;;6.00;5.40;;;15.10;99.90;;;;;;5048654;28;20638;-71
2023/09/04 00:10:28;;;;;;;7.53;5.57;;;15.10;99.90;;;;;;5049117;28;20221;-71
2023/09/04 00:12:54;;;;;;;5.70;5.10;;;15.10;99.90;;;;;;5047340;28;20448;-71
2023/09/04 00:15:20;;;;;;;5.80;5.30;;;15.00;99.90;;;;;;5048480;28;20456;-71
2023/09/04 00:17:50;;;;;;;6.17;5.53;;;14.90;99.90;;;;;;5048232;28;20724;-71
2023/09/04 00:20:16;;;;;;;7.30;6.00;;;14.90;99.90;;;;;;5048895;28;20493;-71
2023/09/04 00:22:42;;;;;;;7.10;5.43;;;14.80;99.90;;;;;;5048822;28;20424;-71
2023/09/04 00:25:09;;;;;;;6.10;5.60;;;14.80;99.90;;;;;;5048443;28;20413;-71
2023/09/04 00:27:35;;;;;;;6.00;5.37;;;14.80;99.90;;;;;;5046773;28;20263;-71
2023/09/04 00:30:00;;;;;;;6.70;6.00;;;14.70;99.90;;;;;;5058549;28;21098;-71
2023/09/04 00:32:26;;;;;;;6.33;5.73;;;14.70;99.90;;;;;;5061405;28;20177;-71
2023/09/04 00:34:52;;;;;;;5.83;5.33;;;14.70;99.90;;;;;;5048141;28;20531;-71
2023/09/04 00:37:17;;;;;;;7.77;5.57;;;14.80;99.90;;;;;;5047875;28;20235;-71
2023/09/04 00:39:43;;;;;;;7.50;5.63;;;14.80;99.90;;;;;;5047071;28;20221;-71
2023/09/04 00:42:10;;;;;;;10.40;6.37;;;14.80;99.90;;;;;;5048115;28;20355;-71
2023/09/04 00:44:36;;;;;;;8.23;6.17;;;14.90;99.90;;;;;;5048377;28;20208;-71
2023/09/04 00:47:02;;;;;;;7.20;6.33;;;15.00;99.90;;;;;;5046213;28;20481;-72
2023/09/04 00:49:29;;;;;;;6.87;6.03;;;15.00;99.90;;;;;;5047033;28;20487;-71
2023/09/04 00:51:56;;;;;;;5.97;5.37;;;15.00;99.90;;;;;;5047988;28;20812;-72
2023/09/04 00:54:23;;;;;;;6.50;5.90;;;15.00;99.90;;;;;;5047743;28;20466;-71
2023/09/04 00:56:51;;;;;;;6.27;5.77;;;15.00;99.90;;;;;;5047530;28;20491;-71
2023/09/04 00:59:18;;;;;;;6.13;5.50;;;15.00;99.90;;;;;;5047487;28;21163;-71
2023/09/04 01:01:44;;;;;;;6.93;6.10;;;15.00;99.90;;;;;;5046694;28;20791;-71
2023/09/04 01:04:09;;;;;;;8.00;6.00;;;15.00;99.90;;;;;;5047541;28;20416;-71
2023/09/04 01:06:35;;;;;;;7.37;6.17;;;14.90;99.90;;;;;;5047145;28;20421;-71
2023/09/04 01:09:01;;;;;;;6.40;5.80;;;14.80;99.90;;;;;;5046388;28;20244;-72
2023/09/04 01:11:27;;;;;;;6.00;5.33;;;14.70;99.90;;;;;;5048057;28;20909;-71
2023/09/04 01:13:55;;;;;;;9.20;6.30;;;14.60;99.90;;;;;;5047624;28;20173;-71
2023/09/04 01:16:22;;;;;;;7.03;6.33;;;14.50;99.90;;;;;;5046563;28;20177;-71
2023/09/04 01:18:49;;;;;;;6.80;6.20;;;14.50;99.90;;;;;;5047509;28;20800;-71
2023/09/04 01:21:16;;;;;;;6.10;5.50;;;14.40;99.90;;;;;;5047210;28;20460;-71
2023/09/04 01:23:41;;;;;;;7.00;6.30;;;14.40;99.90;;;;;;5047624;28;20435;-71
2023/09/04 01:26:30;;;;;;;7.80;6.20;;;14.40;99.90;;;;;;5046660;28;20412;-71
2023/09/04 01:29:14;;;;;;;9.00;6.80;;;14.50;99.90;;;;;;5045681;28;21023;-71
2023/09/04 01:32:10;;;;;;;6.00;5.40;;;14.50;99.90;;;;;;5067114;28;20477;-71
2023/09/04 01:34:48;;;;;;;6.20;5.60;;;14.50;99.90;;;;;;5036827;28;20933;-71
2023/09/04 01:37:14;;;;;;;6.60;5.97;;;14.50;99.90;;;;;;5046938;28;20423;-71
2023/09/04 01:39:42;;;;;;;6.03;5.43;;;14.30;99.90;;;;;;5047687;28;20456;-71
2023/09/04 01:42:07;;;;;;;10.03;5.53;;;14.20;99.90;;;;;;5047309;28;20471;-71
2023/09/04 01:44:34;;;;;;;6.73;5.90;;;14.20;99.90;;;;;;5045967;28;20843;-71
2023/09/04 01:47:00;;;;;;;7.20;6.50;;;14.10;99.90;;;;;;5046939;28;20285;-71
2023/09/04 01:49:25;;;;;;;7.47;6.77;;;14.10;99.90;;;;;;5040670;28;20475;-72
2023/09/04 01:51:58;;;;;;;6.90;6.30;;;14.20;99.90;;;;;;5047447;28;20443;-71
2023/09/04 01:54:23;;;;;;;6.53;5.93;;;14.20;99.90;;;;;;5047347;28;20178;-71
2023/09/04 01:56:49;;;;;;;7.60;6.27;;;14.20;99.90;;;;;;5046841;28;20411;-71
2023/09/04 01:59:15;;;;;;;11.90;6.30;;;14.20;99.90;;;;;;5066152;28;20427;-71
2023/09/04 02:01:41;;;;;;;6.70;6.10;;;14.20;99.90;;;;;;5060126;28;20243;-71
2023/09/04 02:04:06;;;;;;;5.90;5.30;;;14.20;99.90;;;;;;5048436;28;20557;-71
2023/09/04 02:06:32;;;;;;;7.33;6.13;;;14.20;99.90;;;;;;5056218;28;20256;-71
2023/09/04 02:08:58;;;;;;;6.63;5.97;;;14.20;99.90;;;;;;5078888;28;20427;-71
2023/09/04 02:11:24;;;;;;;7.27;6.00;;;14.20;99.90;;;;;;5083523;28;20184;-72
2023/09/04 02:13:49;;;;;;;6.37;5.00;;;14.10;99.90;;;;;;5085780;28;20275;-72
2023/09/04 02:16:15;;;;;;;6.90;6.13;;;14.00;99.90;;;;;;5071034;28;20213;-72
2023/09/04 02:18:41;;;;;;;7.37;6.63;;;13.90;99.90;;;;;;5067775;28;20216;-72
2023/09/04 02:21:07;;;;;;;7.10;6.40;;;14.00;99.90;;;;;;5067178;28;20219;-72
2023/09/04 02:23:33;;;;;;;6.60;5.90;;;14.00;99.90;;;;;;5066042;28;20181;-71
2023/09/04 02:25:59;;;;;;;7.00;6.40;;;14.00;99.90;;;;;;5066493;28;20423;-72
2023/09/04 02:28:24;;;;;;;7.80;5.90;;;14.00;99.90;;;;;;5063296;28;20428;-71
2023/09/04 02:30:51;;;;;;;8.20;6.40;;;14.00;99.90;;;;;;5044948;28;20205;-71
2023/09/04 02:33:17;;;;;;;8.27;6.60;;;14.00;99.90;;;;;;5046761;28;20333;-71
2023/09/04 02:35:42;;;;;;;8.77;7.03;;;14.10;99.90;;;;;;5044548;28;20507;-72
2023/09/04 02:38:08;;;;;;;11.50;7.80;;;14.10;99.90;;;;;;5046742;28;20415;-71
2023/09/04 02:40:34;;;;;;;9.17;6.90;;;14.10;99.90;;;;;;5046607;28;20682;-71
2023/09/04 02:43:00;;;;;;;7.00;6.40;;;14.10;99.90;;;;;;5046421;28;20712;-71
2023/09/04 02:45:25;;;;;;;7.53;6.60;;;14.10;99.90;;;;;;5046334;28;20620;-71
2023/09/04 02:47:51;;;;;;;7.27;6.67;;;14.10;99.90;;;;;;5045896;28;20575;-71
2023/09/04 02:50:17;;;;;;;7.90;6.00;;;14.10;99.90;;;;;;5046558;28;20210;-71
2023/09/04 02:52:43;;;;;;;7.43;6.67;;;14.10;99.90;;;;;;5046954;28;20185;-72
2023/09/04 02:55:09;;;;;;;7.13;6.43;;;14.00;99.90;;;;;;5045833;28;20424;-71
2023/09/04 02:57:35;;;;;;;8.50;6.87;;;14.00;99.90;;;;;;5046079;28;20190;-71
2023/09/04 03:00:03;;;;;;;9.10;6.40;;;14.00;99.90;;;;;;5044511;28;20470;-72
2023/09/04 03:02:29;;;;;;;7.17;6.50;;;13.90;99.90;;;;;;5048991;28;20203;-71
2023/09/04 03:04:55;;;;;;;6.63;6.07;;;13.90;99.90;;;;;;5049843;28;20917;-71
2023/09/04 03:07:22;;;;;;;7.93;6.47;;;13.90;99.90;;;;;;5049756;28;20182;-71
2023/09/04 03:09:52;;;;;;;6.87;6.17;;;13.90;99.90;;;;;;5048807;28;20451;-71
2023/09/04 03:12:18;;;;;;;7.60;6.90;;;13.80;99.90;;;;;;5050029;28;21197;-71
2023/09/04 03:14:44;;;;;;;8.73;7.03;;;13.70;99.90;;;;;;5049957;28;20432;-71
2023/09/04 03:17:09;;;;;;;9.03;7.00;;;13.80;99.90;;;;;;5049074;28;20565;-71
2023/09/04 03:19:35;;;;;;;7.40;6.63;;;13.80;99.90;;;;;;5049900;28;20209;-71
2023/09/04 03:22:01;;;;;;;9.07;6.40;;;13.90;99.90;;;;;;5049706;28;20268;-71
2023/09/04 03:24:26;;;;;;;9.00;7.20;;;13.90;99.90;;;;;;5049700;28;20181;-71
2023/09/04 03:26:52;;;;;;;7.20;6.53;;;13.90;99.90;;;;;;5049245;28;20199;-71
2023/09/04 03:29:18;;;;;;;7.40;6.70;;;14.00;99.90;;;;;;5052402;28;20569;-71
2023/09/04 03:31:43;;;;;;;6.77;6.17;;;14.10;99.90;;;;;;5069776;28;20208;-71
2023/09/04 03:34:09;;;;;;;7.27;5.70;;;14.00;99.90;;;;;;5069631;28;20181;-71
2023/09/04 03:36:35;;;;;;;7.60;6.90;;;14.00;99.90;;;;;;5067338;28;20216;-71
2023/09/04 03:39:02;;;;;;;6.67;6.07;;;13.90;99.90;;;;;;5069548;28;20254;-71
2023/09/04 03:41:29;;;;;;;9.83;6.53;;;13.90;99.90;;;;;;5069162;28;20307;-71
2023/09/04 03:43:55;;;;;;;6.30;5.73;;;13.90;99.90;;;;;;5069807;28;20443;-71
2023/09/04 03:46:20;;;;;;;8.10;7.10;;;13.80;99.90;;;;;;5068080;28;20442;-71
2023/09/04 03:48:46;;;;;;;8.53;6.57;;;13.70;99.90;;;;;;5068183;28;20197;-71
2023/09/04 03:51:12;;;;;;;6.40;5.80;;;13.70;99.90;;;;;;5069395;28;20694;-71
2023/09/04 03:53:37;;;;;;;6.97;6.27;;;13.70;99.90;;;;;;5069192;28;20638;-72
2023/09/04 03:56:06;;;;;;;6.50;5.90;;;13.60;99.90;;;;;;5067019;28;20999;-71
2023/09/04 03:58:32;;;;;;;6.87;6.17;;;13.40;99.90;;;;;;5068927;28;20212;-71
2023/09/04 04:00:58;;;;;;;9.03;6.63;;;13.40;99.90;;;;;;5067741;28;20463;-71
2023/09/04 04:03:24;;;;;;;7.37;6.70;;;13.20;99.90;;;;;;5068935;28;20268;-71
2023/09/04 04:05:49;;;;;;;7.73;6.70;;;13.20;99.90;;;;;;5066826;28;20833;-72
2023/09/04 04:08:15;;;;;;;6.27;5.67;;;13.20;99.90;;;;;;5069137;28;20173;-71
2023/09/04 04:10:41;;;;;;;6.63;5.93;;;13.20;99.90;;;;;;5068634;28;20623;-71
2023/09/04 04:13:06;;;;;;;6.47;5.87;;;13.10;99.90;;;;;;5068657;28;20207;-71
2023/09/04 04:15:32;;;;;;;6.37;5.77;;;13.10;99.90;;;;;;5068255;28;20613;-71
2023/09/04 04:17:58;;;;;;;7.27;6.50;;;13.10;99.90;;;;;;5068599;28;20193;-71
2023/09/04 04:20:23;;;;;;;7.70;6.20;;;13.00;99.90;;;;;;5067237;28;20233;-71
2023/09/04 04:22:49;;;;;;;9.30;5.73;;;13.10;99.90;;;;;;5067494;28;20264;-71
2023/09/04 04:25:15;;;;;;;9.37;7.90;;;13.10;99.90;;;;;;5068402;28;20177;-71
2023/09/04 04:27:42;;;;;;;7.83;6.77;;;13.20;99.90;;;;;;5052216;28;20185;-71
2023/09/04 04:30:10;;;;;;;6.70;6.10;;;13.20;99.90;;;;;;5059600;28;20673;-70
2023/09/04 04:32:37;;;;;;;6.80;6.10;;;13.20;99.90;;;;;;5068736;28;20841;-71
2023/09/04 04:35:04;;;;;;;7.10;5.90;;;13.20;99.90;;;;;;5068127;28;20451;-71
2023/09/04 04:37:30;;;;;;;6.70;6.00;;;13.20;99.90;;;;;;5068058;28;20415;-71
2023/09/04 04:39:55;;;;;;;7.33;6.63;;;13.30;99.90;;;;;;5068533;28;20470;-71
2023/09/04 04:42:25;;;;;;;6.83;6.23;;;13.20;99.90;;;;;;5068376;28;20185;-72
2023/09/04 04:44:52;;;;;;;7.70;6.20;;;13.10;99.90;;;;;;5067873;28;20665;-72
2023/09/04 04:47:18;;;;;;;8.57;6.90;;;13.10;99.90;;;;;;5067932;28;20973;-71
2023/09/04 04:49:44;;;;;;;6.67;6.07;;;13.20;99.90;;;;;;5068151;28;20435;-72
2023/09/04 04:52:09;;;;;;;7.30;6.60;;;13.20;99.90;;;;;;5068344;28;20181;-71
2023/09/04 04:54:35;;;;;;;6.70;6.00;;;13.10;99.90;;;;;;5068195;28;20823;-72
2023/09/04 04:57:01;;;;;;;6.30;5.70;;;13.20;99.90;;;;;;5060979;28;20213;-71
2023/09/04 04:59:27;;;;;;;7.23;5.90;;;13.20;99.90;;;;;;5066854;28;20213;-71
2023/09/04 05:01:54;;;;;;;6.53;5.93;;;13.20;99.90;;;;;;5067936;28;20181;-72
2023/09/04 05:04:20;;;;;;;7.10;6.03;;;13.10;99.90;;;;;;5068152;28;20429;-72
2023/09/04 05:06:46;;;;;;;9.33;6.80;;;13.00;99.90;;;;;;5049732;28;20419;-71
2023/09/04 05:09:11;;;;;;;6.03;5.53;;;13.00;99.90;;;;;;5068160;28;20204;-71
2023/09/04 05:11:37;;;;;;;6.23;5.63;;;13.00;99.90;;;;;;5062284;28;20198;-71
2023/09/04 05:14:03;;;;;;;7.10;6.47;;;12.90;99.90;;;;;;5065211;28;20236;-71
2023/09/04 05:16:29;;;;;;;6.70;6.13;;;12.90;99.90;;;;;;5058174;28;20286;-71
2023/09/04 05:18:55;;;;;;;6.40;5.77;;;12.90;99.90;;;;;;5057198;28;20197;-71
2023/09/04 05:21:21;;;;;;;7.53;6.43;;;12.90;99.90;;;;;;5067319;28;20486;-72
2023/09/04 05:23:47;;;;;;;8.60;5.97;;;12.90;99.90;;;;;;5067281;28;20552;-71
2023/09/04 05:26:13;;;;;;;7.73;6.60;;;13.00;99.90;;;;;;5066590;28;20606;-71
2023/09/04 05:28:39;;;;;;;9.30;5.90;;;13.00;99.90;;;;;;5062910;28;20477;-72
2023/09/04 05:31:04;;;;;;;6.80;5.90;;;13.00;99.90;;;;;;5047702;28;20235;-71
2023/09/04 05:33:30;;;;;;;7.73;7.03;;;13.00;99.90;;;;;;5047470;28;20622;-71
2023/09/04 05:35:56;;;;;;;6.50;5.90;;;13.00;99.90;;;;;;5047063;28;20215;-71
2023/09/04 05:38:22;;;;;;;7.40;6.70;;;13.00;99.90;;;;;;5047403;28;20735;-71
2023/09/04 05:41:00;;;;;;;7.73;5.93;;;13.20;99.90;;;;;;5047538;28;20463;-72
2023/09/04 05:43:26;;;;;;;7.13;6.53;;;13.40;99.90;;;;;;5047160;28;20988;-71
2023/09/04 05:45:52;;;;;;;6.90;6.30;;;13.50;99.90;;;;;;5046643;28;20432;-71
2023/09/04 05:48:18;;;;;;;8.10;7.30;;;13.60;99.90;;;;;;5047090;28;20412;-71
2023/09/04 05:50:43;;;;;;;7.33;6.37;;;13.70;99.90;;;;;;5052321;28;20412;-71
2023/09/04 05:53:09;;;;;;;6.83;6.17;;;13.70;99.90;;;;;;5067416;28;20184;-72
2023/09/04 05:55:37;;;;;;;6.77;6.13;;;13.70;99.90;;;;;;5066389;28;20196;-71
2023/09/04 05:58:03;;;;;;;7.57;6.87;;;13.90;99.90;;;;;;5067116;28;20262;-71
2023/09/04 06:00:29;;;;;;;7.50;5.77;;;14.00;99.90;;;;;;5065607;28;20991;-72
2023/09/04 06:02:55;;;;;;;7.43;5.90;;;14.10;99.90;;;;;;5067275;28;20205;-72
2023/09/04 06:05:24;;;;;;;6.20;5.10;;;14.30;99.90;;;;;;5066867;28;20547;-71
2023/09/04 06:07:50;;;;;;;5.83;5.17;;;14.50;99.90;;;;;;5066714;28;20748;-72
2023/09/04 06:10:15;;;;;;;6.90;5.77;;;14.70;99.90;;;;;;5067009;28;20447;-72
2023/09/04 06:12:41;;;;;;;5.63;5.13;;;14.90;99.90;;;;;;5066922;28;20184;-72
2023/09/04 06:15:07;;;;;;;7.60;6.00;;;15.10;99.90;;;;;;5066703;28;20542;-72
2023/09/04 06:17:33;;;;;;;5.90;5.40;;;15.10;99.90;;;;;;5064925;28;20184;-72
2023/09/04 06:19:58;;;;;;;6.07;5.47;;;15.30;99.90;;;;;;5066842;28;20928;-72
2023/09/04 06:22:24;;;;;;;6.80;6.10;;;15.40;99.90;;;;;;5065564;28;20169;-72
2023/09/04 06:24:50;;;;;;;6.03;5.43;;;15.60;99.90;;;;;;5066319;28;20189;-71
2023/09/04 06:27:15;;;;;;;6.43;5.50;;;15.70;99.90;;;;;;5066337;28;20238;-72
2023/09/04 06:29:41;;;;;;;6.53;4.87;;;15.90;99.90;;;;;;5053152;28;20240;-72
2023/09/04 06:32:07;;;;;;;5.30;4.80;;;16.00;99.90;;;;;;5045471;28;20208;-72
2023/09/04 06:34:33;;;;;;;5.83;4.63;;;16.20;99.90;;;;;;5047492;28;20173;-72
2023/09/04 06:36:58;;;;;;;5.20;4.70;;;16.30;99.90;;;;;;5050010;28;20543;-71
2023/09/04 06:39:24;;;;;;;4.87;4.47;;;16.50;99.90;;;;;;5070883;28;20193;-72
2023/09/04 06:41:51;;;;;;;5.17;4.77;;;16.60;99.90;;;;;;5070530;28;20306;-72
2023/09/04 06:44:17;;;;;;;5.00;4.50;;;16.70;99.90;;;;;;5070803;28;20419;-72
2023/09/04 06:46:42;;;;;;;5.43;5.03;;;16.80;99.90;;;;;;5069994;28;20733;-72
2023/09/04 06:49:08;;;;;;;6.20;5.13;;;17.00;99.90;;;;;;5069124;28;20431;-71
2023/09/04 06:51:34;;;;;;;6.23;5.40;;;17.20;99.90;;;;;;5069659;28;20277;-72
2023/09/04 06:54:00;;;;;;;4.90;4.50;;;17.40;99.90;;;;;;5068933;28;20193;-72
2023/09/04 06:56:25;;;;;;;5.53;5.00;;;17.50;99.90;;;;;;5069807;28;20433;-72
2023/09/04 06:58:52;;;;;;;6.23;5.10;;;17.70;99.90;;;;;;5070191;28;20259;-72
2023/09/04 07:01:17;;;;;;;6.37;5.43;;;17.70;99.90;;;;;;5068672;28;20215;-72
2023/09/04 07:03:43;;;;;;;5.40;4.90;;;17.90;99.90;;;;;;5070383;28;20502;-72
2023/09/04 07:06:09;;;;;;;6.30;5.70;;;18.00;99.90;;;;;;5069129;28;20184;-72
2023/09/04 07:08:35;;;;;;;5.27;4.83;;;18.10;99.90;;;;;;5070270;28;20193;-71
2023/09/04 07:11:02;;;;;;;5.67;5.10;;;18.10;99.90;;;;;;5070175;28;20192;-71
2023/09/04 07:13:28;;;;;;;5.77;4.67;;;18.30;99.90;;;;;;5070454;28;20584;-72
2023/09/04 07:15:53;;;;;;;7.03;4.37;;;18.30;99.90;;;;;;5069198;28;20523;-72
2023/09/04 07:18:19;;;;;;;6.00;4.73;;;18.40;99.90;;;;;;5069958;28;20173;-72
2023/09/04 07:20:44;;;;;;;5.10;4.67;;;18.40;99.90;;;;;;5070352;28;20228;-72
2023/09/04 07:23:10;;;;;;;4.03;3.73;;;18.50;99.90;;;;;;5069740;28;20271;-72
2023/09/04 07:25:36;;;;;;;7.60;4.50;;;18.40;99.90;;;;;;5051674;28;20668;-72
2023/09/04 07:28:02;;;;;;;4.20;3.57;;;18.50;99.90;;;;;;5068266;28;20189;-72
2023/09/04 07:30:27;;;;;;;4.87;4.37;;;18.50;99.90;;;;;;5049639;28;20542;-72
2023/09/04 07:32:53;;;;;;;5.10;4.57;;;18.50;99.90;;;;;;5049884;28;20651;-72
2023/09/04 07:35:19;;;;;;;4.93;4.50;;;18.50;99.90;;;;;;5049213;28;20590;-71
2023/09/04 07:37:45;;;;;;;4.57;4.03;;;18.60;99.90;;;;;;5049747;28;20228;-72
2023/09/04 07:40:11;;;;;;;4.83;4.33;;;18.60;99.90;;;;;;5049634;28;20202;-72
2023/09/04 07:42:36;;;;;;;4.90;4.53;;;18.70;99.90;;;;;;5049626;28;20193;-72
2023/09/04 07:45:03;;;;;;;5.10;3.90;;;18.70;99.90;;;;;;5049359;28;20420;-72
2023/09/04 07:47:29;;;;;;;4.93;4.53;;;18.80;99.90;;;;;;5048313;28;20185;-72
2023/09/04 07:49:55;;;;;;;5.83;4.27;;;18.80;99.90;;;;;;5049577;28;20440;-72
2023/09/04 07:52:21;;;;;;;4.67;3.80;;;18.90;99.90;;;;;;5049781;28;20189;-72
2023/09/04 07:54:48;;;;;;;4.53;4.07;;;18.90;99.90;;;;;;5049311;28;20419;-72
2023/09/04 07:57:15;;;;;;;4.20;3.53;;;19.00;99.90;;;;;;5049196;28;20190;-71
2023/09/04 07:59:41;;;;;;;4.23;3.57;;;19.10;99.90;;;;;;5047692;28;20432;-72
2023/09/04 08:02:07;;;;;;;3.47;3.27;;;19.20;99.90;;;;;;5049357;28;20428;-72
2023/09/04 08:04:32;;;;;;;4.20;3.63;;;19.20;99.90;;;;;;5049502;28;20416;-72
2023/09/04 08:06:58;;;;;;;3.50;3.20;;;19.30;99.90;;;;;;5048870;28;20420;-72
2023/09/04 08:09:24;;;;;;;4.10;3.70;;;19.30;99.90;;;;;;5049410;28;20210;-72
2023/09/04 08:11:50;;;;;;;3.40;3.10;;;19.40;99.90;;;;;;5049975;28;20188;-72
2023/09/04 08:14:15;;;;;;;3.70;3.40;;;19.40;99.90;;;;;;5070038;28;20192;-72
2023/09/04 08:16:41;;;;;;;4.20;3.73;;;19.40;99.90;;;;;;5066913;28;20664;-72
2023/09/04 08:19:07;;;;;;;3.40;3.10;;;19.40;99.90;;;;;;5061368;28;20267;-71
2023/09/04 08:21:32;;;;;;;3.40;3.03;;;19.50;99.90;;;;;;5063661;28;20217;-72
2023/09/04 08:23:58;;;;;;;4.87;3.77;;;19.50;99.90;;;;;;5051299;28;20192;-72
2023/09/04 08:26:24;;;;;;;3.90;3.60;;;19.60;99.90;;;;;;5047401;28;20209;-72
2023/09/04 08:28:50;;;;;;;4.33;3.43;;;19.60;99.90;;;;;;5049178;28;20639;-72
2023/09/04 08:31:16;;;;;;;3.93;3.17;;;19.70;99.90;;;;;;5067790;28;20963;-72
2023/09/04 08:33:42;;;;;;;3.30;3.00;;;19.80;99.90;;;;;;5068867;28;20185;-72
2023/09/04 08:36:07;;;;;;;3.70;3.33;;;19.80;99.90;;;;;;5067544;28;20502;-72
2023/09/04 08:38:33;;;;;;;4.80;3.03;;;19.80;99.90;;;;;;5068816;28;20181;-72
2023/09/04 08:41:02;;;;;;;3.50;3.20;;;19.90;99.90;;;;;;5068410;28;20236;-72
2023/09/04 08:43:31;;;;;;;3.40;3.10;;;19.80;99.90;;;;;;5042703;28;20188;-72
2023/09/04 08:46:00;;;;;;;4.80;3.63;;;19.80;99.90;;;;;;5047773;28;21146;-72
2023/09/04 08:48:30;;;;;;;4.07;3.50;;;19.80;99.90;;;;;;5040843;28;20444;-72
2023/09/04 08:50:56;;;;;;;3.57;3.30;;;19.90;99.90;;;;;;5048387;28;20448;-72
2023/09/04 08:53:23;;;;;;;4.17;3.33;;;20.00;99.90;;;;;;5048451;28;20903;-72
2023/09/04 08:55:50;;;;;;;4.50;3.47;;;20.00;99.90;;;;;;5047516;28;20503;-72
2023/09/04 08:58:16;;;;;;;4.67;3.50;;;20.10;99.90;;;;;;5047141;28;20424;-72
2023/09/04 09:00:44;;;;;;;3.80;3.50;;;20.10;99.90;;;;;;5046612;28;20814;-72
2023/09/04 09:03:11;;;;;;;6.50;3.70;;;20.10;99.90;;;;;;5047908;28;20209;-72
2023/09/04 09:05:37;;;;;;;3.60;3.30;;;20.20;99.90;;;;;;5046500;28;20777;-72
2023/09/04 09:08:05;;;;;;;4.90;3.40;;;20.30;99.90;;;;;;5047942;28;20427;-72
2023/09/04 09:10:31;;;;;;;4.00;2.97;;;20.30;99.90;;;;;;5048143;28;20796;-72
2023/09/04 09:12:56;;;;;;;3.90;3.00;;;20.40;99.90;;;;;;5048232;28;20428;-72
2023/09/04 09:15:22;;;;;;;3.90;3.10;;;20.40;99.90;;;;;;5047507;28;20185;-72
2023/09/04 09:17:53;;;;;;;3.07;2.63;;;20.40;99.90;;;;;;5048088;28;20189;-71
2023/09/04 09:20:35;;;;;;;3.63;3.33;;;20.50;99.90;;;;;;5047488;28;20336;-72
2023/09/04 09:23:04;;;;;;;4.90;3.00;;;20.70;99.90;;;;;;5047633;28;20485;-72
2023/09/04 09:25:30;;;;;;;5.27;3.73;;;20.70;99.90;;;;;;5047363;28;20452;-72
2023/09/04 09:28:05;;;;;;;4.43;4.03;;;20.80;99.90;;;;;;5047097;28;20896;-71
2023/09/04 09:30:39;;;;;;;4.50;3.70;;;20.90;99.90;;;;;;5041897;28;20959;-71
2023/09/04 09:33:08;;;;;;;8.03;4.20;;;21.00;99.90;;;;;;5046385;28;20507;-72
2023/09/04 09:35:34;;;;;;;4.70;4.30;;;21.10;99.90;;;;;;5046652;28;20452;-71
2023/09/04 09:38:01;;;;;;;5.30;4.00;;;21.20;99.90;;;;;;5047568;28;20459;-72
2023/09/04 09:40:27;;;;;;;5.53;4.37;;;21.40;99.90;;;;;;5047620;28;20251;-72
2023/09/04 09:42:53;;;;;;;5.97;4.07;;;21.60;99.90;;;;;;5046325;28;20504;-72
2023/09/04 09:45:19;;;;;;;4.20;3.70;;;21.70;99.90;;;;;;5047187;28;21437;-72
2023/09/04 09:47:45;;;;;;;5.40;3.80;;;21.80;99.90;;;;;;5045696;28;20184;-72
2023/09/04 09:50:11;;;;;;;4.07;3.67;;;21.90;99.90;;;;;;5047308;28;20436;-73
2023/09/04 09:52:36;;;;;;;4.20;3.60;;;22.00;99.90;;;;;;5046296;28;20201;-72
2023/09/04 09:55:03;;;;;;;4.53;3.40;;;22.10;99.90;;;;;;5046835;28;20190;-72
2023/09/04 09:57:30;;;;;;;4.13;3.33;;;22.20;99.90;;;;;;5046950;28;20189;-72
2023/09/04 09:59:56;;;;;;;3.37;3.07;;;22.30;99.90;;;;;;5045210;28;20475;-72
2023/09/04 10:02:24;;;;;;;3.53;3.23;;;22.40;99.90;;;;;;5047275;28;20412;-72
2023/09/04 10:04:50;;;;;;;4.10;3.23;;;22.50;99.90;;;;;;5063419;28;20434;-72
2023/09/04 10:07:21;;;;;;;5.03;4.17;;;22.50;99.90;;;;;;5066630;28;20450;-72
2023/09/04 10:09:59;;;;;;;3.73;3.30;;;22.70;99.90;;;;;;5065549;28;20227;-72
2023/09/04 10:12:41;;;;;;;3.17;2.87;;;22.80;99.90;;;;;;5067325;28;20415;-72
2023/09/04 10:15:07;;;;;;;4.37;3.50;;;22.80;99.90;;;;;;5066920;28;20804;-72
2023/09/04 10:17:37;;;;;;;6.40;3.20;;;22.90;99.90;;;;;;5065226;28;20916;-72
2023/09/04 10:20:05;;;;;;;5.17;3.13;;;23.00;99.90;;;;;;5066883;28;21211;-72
2023/09/04 10:22:37;;;;;;;3.03;2.80;;;23.10;99.90;;;;;;5066888;28;20408;-72
2023/09/04 10:25:19;;;;;;;3.03;2.73;;;23.10;99.90;;;;;;5065357;28;20412;-72
2023/09/04 10:27:50;;;;;;;3.83;2.80;;;23.20;99.90;;;;;;5066877;28;21558;-72
2023/09/04 10:30:18;;;;;;;4.60;2.70;;;23.30;99.90;;;;;;5059435;28;20455;-72
2023/09/04 10:32:45;;;;;;;4.00;2.30;;;23.30;99.90;;;;;;5065997;28;20419;-72
2023/09/04 10:35:11;;;;;;;2.60;2.40;;;23.40;99.90;;;;;;5066489;28;20459;-72
2023/09/04 10:37:37;;;;;;;4.13;2.57;;;23.50;99.90;;;;;;5065277;28;20931;-72
2023/09/04 10:40:10;;;;;;;2.87;2.57;;;23.60;99.90;;;;;;5067433;28;20455;-71
2023/09/04 10:42:41;;;;;;;2.90;2.60;;;23.60;99.90;;;;;;5067005;28;20791;-72
2023/09/04 10:45:18;;;;;;;2.40;2.20;;;23.70;99.90;;;;;;5066488;28;20432;-72
2023/09/04 10:47:50;;;;;;;2.60;2.40;;;23.70;99.90;;;;;;5066583;28;20422;-71
2023/09/04 10:50:30;;;;;;;3.30;2.60;;;23.80;99.90;;;;;;5056242;28;20480;-72
2023/09/04 10:53:03;;;;;;;2.67;2.47;;;23.80;99.90;;;;;;5046620;28;20431;-71
2023/09/04 10:55:29;;;;;;;4.87;2.20;;;23.80;99.90;;;;;;5040086;28;20798;-71
2023/09/04 10:57:56;;;;;;;2.50;2.30;;;24.00;99.10;;;;;;5045174;28;20424;-72
2023/09/04 11:00:33;;;;;;;4.27;2.30;;;24.00;99.10;;;;;;5044008;28;21034;-72
2023/09/04 11:03:19;;;;;;;2.53;2.33;;;24.10;98.50;;;;;;5045530;28;20499;-72
2023/09/04 11:06:06;;;;;;;2.80;2.33;;;24.10;99.90;;;;;;5046126;28;20420;-72
2023/09/04 11:08:33;;;;;;;2.30;2.10;;;24.10;99.40;;;;;;5046875;28;20408;-71
2023/09/04 11:11:03;;;;;;;2.73;2.20;;;24.10;99.50;;;;;;5045804;28;20846;-71
2023/09/04 11:13:33;;;;;;;2.50;2.30;;;24.20;99.90;;;;;;5054930;28;20445;-71
2023/09/04 11:16:03;;;;;;;3.57;2.67;;;24.20;99.70;;;;;;5064981;28;20418;-71
2023/09/04 11:18:30;;;;;;;4.03;2.57;;;24.20;99.10;;;;;;5063758;28;20491;-72
2023/09/04 11:20:56;;;;;;;2.53;2.33;;;24.20;99.10;;;;;;5059038;28;20440;-72
2023/09/04 11:23:25;;;;;;;2.70;2.23;;;24.30;99.80;;;;;;5080278;28;20404;-71
2023/09/04 11:25:54;;;;;;;2.37;2.17;;;24.20;98.70;;;;;;5079880;28;20935;-72
2023/09/04 11:28:23;;;;;;;2.80;2.60;;;24.30;99.60;;;;;;5070079;28;21002;-72
2023/09/04 11:30:59;;;;;;;2.27;2.07;;;24.40;98.10;;;;;;5050830;28;20497;-72
2023/09/04 11:33:26;;;;;;;2.50;2.30;;;24.40;97.40;;;;;;5042443;28;20454;-72
2023/09/04 11:36:03;;;;;;;4.63;2.40;;;24.40;97.10;;;;;;5049384;28;20419;-72
2023/09/04 11:38:30;;;;;;;2.73;2.17;;;24.50;96.30;;;;;;5050136;28;20920;-73
2023/09/04 11:40:56;;;;;;;2.60;2.07;;;24.50;95.80;;;;;;5049833;28;20456;-72
2023/09/04 11:43:24;;;;;;;2.60;2.40;;;24.60;95.80;;;;;;5049807;28;20769;-72
2023/09/04 11:45:57;;;;;;;2.57;2.13;;;24.70;96.90;;;;;;5048754;28;20184;-72
2023/09/04 11:48:27;;;;;;;5.03;2.40;;;24.70;95.80;;;;;;5048463;28;20420;-72
2023/09/04 11:50:57;;;;;;;2.40;2.10;;;24.80;94.70;;;;;;5049252;28;20432;-72
2023/09/04 11:53:23;;;;;;;2.40;2.20;;;24.80;95.60;;;;;;5049713;28;20412;-72
2023/09/04 11:55:51;;;;;;;5.60;1.93;;;24.70;95.80;;;;;;5047168;28;21091;-72
2023/09/04 11:58:17;;;;;;;1.83;1.73;;;24.70;95.80;;;;;;5048162;28;20600;-71
2023/09/04 12:00:43;;;;;;;1.97;1.87;;;24.80;95.30;;;;;;5047413;28;20547;-72
2023/09/04 12:03:09;;;;;;;2.37;2.17;;;24.80;94.30;;;;;;5048048;28;20185;-71
2023/09/04 12:05:36;;;;;;;2.27;2.07;;;24.80;94.40;;;;;;5048823;28;20217;-72
2023/09/04 12:08:05;;;;;;;2.10;1.90;;;24.90;93.90;;;;;;5048633;28;20252;-72
2023/09/04 12:10:35;;;;;;;2.40;1.93;;;25.00;93.80;;;;;;5048052;28;20436;-72
2023/09/04 12:13:04;;;;;;;3.80;2.57;;;25.00;93.50;;;;;;5048939;28;20466;-72
2023/09/04 12:15:33;;;;;;;1.90;1.80;;;25.00;94.30;;;;;;5047808;28;20419;-72
2023/09/04 12:18:02;;;;;;;2.60;2.10;;;25.00;94.50;;;;;;5046956;28;20416;-72
2023/09/04 12:20:39;;;;;;;2.50;2.30;;;25.10;94.70;;;;;;5042863;28;20543;-71
2023/09/04 12:23:05;;;;;;;2.37;2.17;;;25.20;95.50;;;;;;5048879;28;20412;-72
2023/09/04 12:25:44;;;;;;;2.63;2.20;;;25.20;94.80;;;;;;5048504;28;20436;-72
2023/09/04 12:28:12;;;;;;;2.80;2.47;;;25.20;95.30;;;;;;5048574;28;20431;-72
2023/09/04 12:30:40;;;;;;;3.30;3.00;;;25.20;95.30;;;;;;5063427;28;20519;-72
2023/09/04 12:33:13;;;;;;;2.40;2.20;;;25.20;95.00;;;;;;5067389;28;21109;-72
2023/09/04 12:35:40;;;;;;;2.83;1.93;;;25.20;94.40;;;;;;5066284;28;20419;-72
2023/09/04 12:38:07;;;;;;;2.60;2.40;;;25.30;94.50;;;;;;5068796;28;20426;-72
2023/09/04 12:40:32;;;;;;;2.40;2.20;;;25.30;95.20;;;;;;5067126;28;21376;-72
2023/09/04 12:43:01;;;;;;;4.50;2.37;;;25.40;96.10;;;;;;5068826;28;20420;-72
2023/09/04 12:45:26;;;;;;;3.33;2.63;;;25.50;94.20;;;;;;5041501;28;20185;-72